Time;durP1;ratioP1;P1;durP2;ratioP2;P2;SDS_P1;SDS_P2;PMS_P1;PMS_P2;Temp;Humidity;BMP_temperature;BMP_pressure;BME280_temperature;BME280_humidity;BME280_pressure;Samples;Min_cycle;Max_cycle;Signal;HPM_P1;HPM_P2
2022/09/28 00:00:45;;;;;;;;;7.50;3.00;;;;;27.08;100.00;101552.34;5004003;28;51250;-49
2022/09/28 00:03:29;;;;;;;;;8.50;5.25;;;;;27.06;100.00;101547.84;5018656;28;51366;-47
2022/09/28 00:06:17;;;;;;;;;5.00;4.50;;;;;27.05;100.00;101546.06;5018920;28;51399;-48
2022/09/28 00:09:02;;;;;;;;;7.25;4.00;;;;;27.01;100.00;101536.31;5018507;28;51472;-47
2022/09/28 00:11:47;;;;;;;;;8.75;4.00;;;;;27.06;100.00;101538.75;5018719;28;51111;-50
2022/09/28 00:14:31;;;;;;;;;5.25;4.00;;;;;27.02;100.00;101535.34;5018666;28;51094;-46
2022/09/28 00:17:15;;;;;;;;;10.00;3.75;;;;;27.05;100.00;101539.72;5018648;28;51019;-48
2022/09/28 00:20:04;;;;;;;;;5.25;3.50;;;;;27.01;100.00;101519.06;5019524;28;51491;-46
2022/09/28 00:22:49;;;;;;;;;7.00;4.75;;;;;27.03;100.00;101531.63;5022002;28;51187;-47
2022/09/28 00:25:33;;;;;;;;;4.75;4.75;;;;;27.05;100.00;101534.25;5022526;28;51222;-50
2022/09/28 00:28:17;;;;;;;;;9.25;3.75;;;;;27.04;100.00;101525.19;5006823;28;51012;-47
2022/09/28 00:31:02;;;;;;;;;8.50;6.25;;;;;27.05;100.00;101534.25;5021997;28;51154;-48
2022/09/28 00:33:50;;;;;;;;;8.50;4.25;;;;;27.08;100.00;101536.81;5022176;28;53180;-47
2022/09/28 00:36:35;;;;;;;;;8.75;3.50;;;;;27.06;100.00;101534.19;5022324;28;51221;-51
2022/09/28 00:39:20;;;;;;;;;4.50;2.00;;;;;27.06;100.00;101525.09;5021819;28;51028;-50
2022/09/28 00:42:10;;;;;;;;;7.75;4.00;;;;;27.03;100.00;101517.97;5021851;28;51154;-50
2022/09/28 00:44:56;;;;;;;;;4.00;3.00;;;;;27.00;100.00;101515.41;5022061;28;51426;-49
2022/09/28 00:47:53;;;;;;;;;6.00;4.00;;;;;27.01;100.00;101527.25;5021717;28;50994;-49
2022/09/28 00:50:39;;;;;;;;;5.00;3.50;;;;;27.02;100.00;101521.69;5006982;28;51064;-47
2022/09/28 00:53:26;;;;;;;;;6.00;4.75;;;;;27.03;100.00;101528.03;5021397;28;51152;-48
2022/09/28 00:56:16;;;;;;;;;6.75;3.00;;;;;27.05;100.00;101521.50;5021551;28;52719;-46
2022/09/28 00:59:03;;;;;;;;;9.75;5.00;;;;;27.03;100.00;101520.72;5006696;28;51134;-50
2022/09/28 01:01:48;;;;;;;;;6.00;3.00;;;;;27.00;100.00;101509.97;5006855;28;51131;-49
2022/09/28 01:04:32;;;;;;;;;6.25;3.25;;;;;27.04;100.00;101514.28;5021274;28;51326;-46
2022/09/28 01:07:17;;;;;;;;;7.00;5.25;;;;;27.05;100.00;101515.13;5021305;28;51081;-46
2022/09/28 01:10:03;;;;;;;;;8.00;3.75;;;;;27.03;100.00;101508.91;5021548;28;51419;-51
2022/09/28 01:12:48;;;;;;;;;8.00;4.75;;;;;27.06;100.00;101512.34;5005996;28;51133;-47
2022/09/28 01:15:43;;;;;;;;;7.25;5.00;;;;;27.01;100.00;101489.00;5021519;28;51055;-50
2022/09/28 01:18:44;;;;;;;;;8.50;4.25;;;;;27.06;100.00;101508.72;5006079;28;51429;-50
2022/09/28 01:21:32;;;;;;;;;5.75;4.75;;;;;27.06;100.00;101504.13;5006049;28;51198;-49
2022/09/28 01:24:34;;;;;;;;;8.00;7.75;;;;;27.01;100.00;101500.78;5020501;28;51133;-48
2022/09/28 01:27:25;;;;;;;;;6.25;5.00;;;;;27.06;100.00;101505.97;5020995;28;51111;-50
2022/09/28 01:30:14;;;;;;;;;5.25;3.25;;;;;27.08;100.00;101511.38;4991949;28;51357;-48
2022/09/28 01:33:03;;;;;;;;;7.25;4.75;;;;;27.10;100.00;101504.81;5020862;28;51129;-47
2022/09/28 01:35:58;;;;;;;;;8.00;4.00;;;;;27.10;100.00;101506.66;5005911;28;51091;-48
2022/09/28 01:38:50;;;;;;;;;5.50;3.25;;;;;27.12;100.00;101508.34;5020557;28;51218;-49
2022/09/28 01:41:39;;;;;;;;;5.25;4.00;;;;;27.09;100.00;101502.19;5005974;28;51370;-47
2022/09/28 01:44:24;;;;;;;;;6.50;4.00;;;;;27.12;100.00;101493.78;5005809;28;51032;-49
2022/09/28 01:47:12;;;;;;;;;6.75;3.75;;;;;27.13;100.00;101501.03;5020531;28;51321;-47
2022/09/28 01:50:09;;;;;;;;;5.00;4.00;;;;;27.12;100.00;101497.41;5005240;28;51210;-47
2022/09/28 01:53:09;;;;;;;;;8.25;4.50;;;;;27.16;100.00;101493.50;5005818;28;51175;-48
2022/09/28 01:56:13;;;;;;;;;6.00;4.00;;;;;27.11;100.00;101487.47;5020145;28;50996;-49
2022/09/28 01:59:11;;;;;;;;;5.25;3.00;;;;;27.14;100.00;101486.38;5005373;28;51083;-50
2022/09/28 02:02:06;;;;;;;;;3.00;3.00;;;;;27.13;100.00;101493.72;5020152;28;51171;-50
2022/09/28 02:04:56;;;;;;;;;2.50;2.50;;;;;27.08;100.00;101487.66;5005109;28;51083;-47
2022/09/28 02:07:50;;;;;;;;;3.25;2.25;;;;;27.07;100.00;101488.63;5020246;28;51177;-45
2022/09/28 02:10:43;;;;;;;;;7.50;3.50;;;;;27.03;100.00;101490.66;5019664;28;51119;-46
2022/09/28 02:13:45;;;;;;;;;7.00;4.00;;;;;27.02;100.00;101497.09;5004903;28;51411;-48
2022/09/28 02:16:39;;;;;;;;;5.50;4.00;;;;;27.01;100.00;101495.34;5004737;28;51238;-48
2022/09/28 02:19:26;;;;;;;;;7.50;5.25;;;;;26.98;100.00;101492.81;5016540;28;51139;-50
2022/09/28 02:22:36;;;;;;;;;9.75;4.50;;;;;26.99;100.00;101497.28;5004785;28;51493;-48
2022/09/28 02:25:33;;;;;;;;;5.75;5.25;;;;;26.99;100.00;101496.41;5019869;28;51096;-50
2022/09/28 02:28:18;;;;;;;;;9.00;5.00;;;;;27.00;100.00;101498.16;5020007;28;50979;-48
2022/09/28 02:31:03;;;;;;;;;7.50;4.50;;;;;27.00;100.00;101504.50;5017937;28;51072;-48
2022/09/28 02:33:49;;;;;;;;;4.00;3.00;;;;;27.03;100.00;101504.31;5004927;28;51209;-47
2022/09/28 02:36:34;;;;;;;;;11.50;4.25;;;;;27.04;100.00;101505.19;5001565;28;51963;-46
2022/09/28 02:39:19;;;;;;;;;3.25;1.50;;;;;27.01;100.00;101498.06;5014623;28;51134;-47
2022/09/28 02:42:31;;;;;;;;;5.75;5.50;;;;;27.03;100.00;101498.00;5019383;28;51772;-50
2022/09/28 02:45:50;;;;;;;;;8.75;3.00;;;;;27.02;100.00;101498.97;5004911;28;51214;-46
2022/09/28 02:48:58;;;;;;;;;7.75;3.75;;;;;27.01;100.00;101505.41;4938921;28;51343;-48
2022/09/28 02:52:04;;;;;;;;;3.75;2.50;;;;;27.01;100.00;101511.72;5004399;28;51199;-49
2022/09/28 02:55:42;;;;;;;;;7.50;6.50;;;;;27.01;100.00;101517.19;5019385;28;51156;-47
2022/09/28 02:59:01;;;;;;;;;7.50;3.50;;;;;26.96;100.00;101505.69;4941862;28;51600;-47
2022/09/28 03:02:18;;;;;;;;;4.50;2.50;;;;;26.97;100.00;101518.38;5019407;28;51048;-49
2022/09/28 03:05:02;;;;;;;;;5.00;3.50;;;;;27.01;100.00;101517.19;5018834;28;51187;-49
2022/09/28 03:08:01;;;;;;;;;5.00;3.50;;;;;27.03;100.00;101517.97;5019194;28;51162;-49
2022/09/28 03:10:50;;;;;;;;;8.00;3.75;;;;;27.00;100.00;101514.56;5003709;28;51107;-47
2022/09/28 03:13:35;;;;;;;;;8.00;4.50;;;;;26.97;100.00;101510.16;4999670;28;51194;-47
2022/09/28 03:16:20;;;;;;;;;7.00;4.50;;;;;27.09;100.00;101526.78;5004097;28;51079;-49
2022/09/28 03:19:04;;;;;;;;;10.50;5.00;;;;;27.07;100.00;101518.66;5019078;28;51180;-50
2022/09/28 03:21:49;;;;;;;;;8.50;4.50;;;;;27.06;100.00;101512.34;5019197;28;51455;-51
2022/09/28 03:24:34;;;;;;;;;7.25;5.00;;;;;27.05;100.00;101513.31;5019005;28;51127;-45
2022/09/28 03:27:18;;;;;;;;;6.00;4.25;;;;;27.05;100.00;101518.75;5019423;28;51082;-51
2022/09/28 03:30:04;;;;;;;;;6.25;4.00;;;;;27.05;100.00;101524.22;5019037;28;51229;-50
2022/09/28 03:32:59;;;;;;;;;4.50;4.50;;;;;27.04;100.00;101522.47;5019199;28;51464;-47
2022/09/28 03:35:46;;;;;;;;;6.00;4.25;;;;;27.10;100.00;101528.50;5018910;28;51135;-50
2022/09/28 03:38:31;;;;;;;;;4.00;4.00;;;;;27.08;100.00;101517.69;5019281;28;51122;-46
2022/09/28 03:41:15;;;;;;;;;9.25;3.75;;;;;27.06;100.00;101526.00;5018663;28;51155;-47
2022/09/28 03:44:00;;;;;;;;;8.25;4.25;;;;;26.98;100.00;101522.84;5003669;28;51230;-49
2022/09/28 03:46:45;;;;;;;;;3.25;3.25;;;;;26.99;100.00;101523.72;5019204;28;51306;-48
2022/09/28 03:49:30;;;;;;;;;6.25;3.50;;;;;26.94;100.00;101525.84;5018789;28;51162;-50
2022/09/28 03:52:14;;;;;;;;;5.00;3.50;;;;;26.91;100.00;101514.16;5018978;28;51114;-45
2022/09/28 03:54:59;;;;;;;;;5.25;4.00;;;;;26.86;100.00;101509.94;5015570;28;51087;-48
2022/09/28 03:57:43;;;;;;;;;4.00;3.00;;;;;26.88;100.00;101516.16;5021875;28;51230;-46
2022/09/28 04:00:28;;;;;;;;;5.25;4.00;;;;;26.87;100.00;101514.44;5022293;28;51016;-48
2022/09/28 04:03:13;;;;;;;;;4.25;2.00;;;;;26.86;100.00;101512.66;5022923;28;51197;-47
2022/09/28 04:05:58;;;;;;;;;5.00;4.25;;;;;26.87;100.00;101509.84;5017566;28;51518;-47
2022/09/28 04:08:42;;;;;;;;;5.50;4.25;;;;;26.88;100.00;101510.69;5022594;28;51096;-48
2022/09/28 04:11:26;;;;;;;;;4.50;3.75;;;;;26.86;100.00;101504.47;5022479;28;51050;-48
2022/09/28 04:14:11;;;;;;;;;7.50;5.50;;;;;26.91;100.00;101507.78;5022437;28;51131;-48
2022/09/28 04:16:55;;;;;;;;;6.50;4.00;;;;;26.93;100.00;101505.00;5022589;28;51083;-47
2022/09/28 04:19:40;;;;;;;;;6.50;4.50;;;;;26.90;100.00;101506.03;5022489;28;51534;-46
2022/09/28 04:22:24;;;;;;;;;6.25;5.25;;;;;26.93;100.00;101508.59;5022304;28;51289;-46
2022/09/28 04:25:09;;;;;;;;;4.50;3.00;;;;;26.88;100.00;101505.25;5022230;28;51048;-46
2022/09/28 04:30:56;;;;;;;;;5.00;3.50;;;;;26.80;100.00;101502.09;5022017;28;51438;-49
2022/09/28 04:33:41;;;;;;;;;4.00;3.75;;;;;26.81;100.00;101509.31;5022104;28;51293;-50
2022/09/28 04:36:25;;;;;;;;;3.50;2.00;;;;;26.74;100.00;101512.41;5022118;28;51068;-48
2022/09/28 04:39:14;;;;;;;;;3.50;3.00;;;;;26.74;100.00;101517.88;5017488;28;51545;-48
2022/09/28 04:42:00;;;;;;;;;4.50;2.75;;;;;26.70;100.00;101523.59;5022181;28;51085;-50
2022/09/28 04:44:44;;;;;;;;;5.50;3.50;;;;;26.67;100.00;101521.91;5021735;28;51266;-48
2022/09/28 04:47:29;;;;;;;;;7.25;5.00;;;;;26.66;100.00;101522.00;5021802;28;51130;-50
2022/09/28 04:50:14;;;;;;;;;6.50;5.50;;;;;26.59;100.00;101516.94;5017414;28;51198;-47
2022/09/28 04:53:00;;;;;;;;;4.50;4.50;;;;;26.53;100.00;101500.91;5021898;28;51036;-48
2022/09/28 04:55:55;;;;;;;;;10.00;5.00;;;;;26.64;100.00;101511.19;5021452;28;51560;-47
2022/09/28 04:58:39;;;;;;;;;8.50;6.75;;;;;26.67;100.00;101504.66;5021347;28;51142;-48
2022/09/28 05:01:24;;;;;;;;;6.25;5.00;;;;;26.69;100.00;101505.47;5018317;28;51489;-49
2022/09/28 05:04:09;;;;;;;;;7.50;4.25;;;;;26.72;100.00;101502.56;5018840;28;51138;-48
2022/09/28 05:06:53;;;;;;;;;6.75;5.50;;;;;26.78;100.00;101504.03;5020901;28;51201;-48
2022/09/28 05:09:38;;;;;;;;;7.25;5.50;;;;;26.77;100.00;101503.13;5021113;28;51142;-48
2022/09/28 05:12:23;;;;;;;;;4.00;4.00;;;;;26.80;100.00;101507.56;5021124;28;51435;-47
2022/09/28 05:15:08;;;;;;;;;7.75;5.75;;;;;26.72;100.00;101491.63;5019509;28;51111;-47
2022/09/28 05:17:52;;;;;;;;;8.25;6.00;;;;;26.80;100.00;101500.28;5021268;28;51150;-47
2022/09/28 05:20:41;;;;;;;;;7.50;6.25;;;;;26.85;100.00;101516.38;5005951;28;51438;-50
2022/09/28 05:23:25;;;;;;;;;8.75;7.50;;;;;26.88;100.00;101511.59;5020048;28;51178;-47
2022/09/28 05:26:10;;;;;;;;;8.00;6.50;;;;;26.93;100.00;101511.31;5021096;28;51139;-49
2022/09/28 05:28:55;;;;;;;;;16.50;15.75;;;;;26.94;100.00;101520.38;5020641;28;51056;-48
2022/09/28 05:31:39;;;;;;;;;20.75;18.25;;;;;26.91;100.00;101510.53;5006036;28;51009;-49
2022/09/28 05:34:24;;;;;;;;;13.50;9.50;;;;;26.90;100.00;101516.94;5020463;28;51158;-50
2022/09/28 05:37:08;;;;;;;;;17.75;15.25;;;;;26.84;100.00;101525.53;5003226;28;51099;-49
2022/09/28 05:39:53;;;;;;;;;4.25;1.50;;;;;26.81;100.00;101539.34;5020427;28;51179;-48
2022/09/28 05:42:38;;;;;;;;;4.25;2.75;;;;;26.78;100.00;101545.00;5020867;28;51113;-49
2022/09/28 05:45:22;;;;;;;;;6.00;6.00;;;;;26.75;100.00;101546.03;5019346;28;51108;-47
2022/09/28 05:48:07;;;;;;;;;5.25;5.25;;;;;26.71;100.00;101558.97;5019295;28;51266;-46
2022/09/28 05:50:51;;;;;;;;;6.25;5.25;;;;;26.66;100.00;101549.31;5020320;28;51225;-49
2022/09/28 05:53:35;;;;;;;;;8.25;6.75;;;;;26.65;100.00;101548.44;5020225;28;51153;-49
2022/09/28 05:56:20;;;;;;;;;5.50;5.25;;;;;26.64;100.00;101551.25;5020348;28;51165;-50
2022/09/28 05:59:05;;;;;;;;;13.50;8.25;;;;;26.61;100.00;101552.31;5020050;28;51067;-49
2022/09/28 06:01:49;;;;;;;;;4.25;4.25;;;;;26.61;100.00;101552.31;5020456;28;51167;-47
2022/09/28 06:04:34;;;;;;;;;5.50;5.00;;;;;26.60;100.00;101553.28;5019806;28;51134;-49
2022/09/28 06:07:19;;;;;;;;;7.75;5.00;;;;;26.63;100.00;101572.22;5020403;28;51205;-50
2022/09/28 06:10:04;;;;;;;;;8.25;5.00;;;;;26.64;100.00;101564.88;5016637;28;51447;-47
2022/09/28 06:12:53;;;;;;;;;8.25;6.25;;;;;26.68;100.00;101564.63;5005096;28;51529;-48
2022/09/28 06:15:38;;;;;;;;;9.75;8.25;;;;;26.73;100.00;101565.25;5020144;28;51060;-45
2022/09/28 06:18:22;;;;;;;;;6.50;6.25;;;;;26.78;100.00;101570.47;5004310;28;51079;-50
2022/09/28 06:21:09;;;;;;;;;14.25;7.75;;;;;26.71;100.00;101558.13;5017456;28;51114;-49
2022/09/28 06:23:54;;;;;;;;;19.50;11.25;;;;;26.86;100.00;101584.53;5001818;28;51217;-44
2022/09/28 06:26:38;;;;;;;;;13.00;9.50;;;;;26.90;100.00;101587.94;5018363;28;51004;-44
2022/09/28 06:29:23;;;;;;;;;10.50;6.00;;;;;26.91;100.00;101596.06;5019918;28;51181;-45
2022/09/28 06:32:07;;;;;;;;;9.25;7.00;;;;;26.87;100.00;101596.34;5020476;28;51082;-46
2022/09/28 06:34:52;;;;;;;;;9.75;5.75;;;;;26.82;100.00;101598.44;5019893;28;51984;-44
2022/09/28 06:37:36;;;;;;;;;9.50;6.00;;;;;26.78;100.00;101607.78;5019928;28;51524;-42
2022/09/28 06:40:21;;;;;;;;;8.75;5.00;;;;;26.80;100.00;101609.47;5019852;28;51121;-44
2022/09/28 06:43:15;;;;;;;;;6.00;4.25;;;;;26.74;100.00;101610.69;5019861;28;51197;-43
2022/09/28 06:46:01;;;;;;;;;7.25;4.00;;;;;26.68;100.00;101616.47;5019677;28;51197;-42
2022/09/28 06:48:46;;;;;;;;;8.00;5.00;;;;;26.65;100.00;101613.94;5018629;28;51200;-43
2022/09/28 06:51:30;;;;;;;;;7.50;4.50;;;;;26.59;100.00;101623.38;5019753;28;51299;-43
2022/09/28 06:54:14;;;;;;;;;5.00;3.50;;;;;26.64;100.00;101639.47;5019496;28;51265;-46
2022/09/28 06:56:59;;;;;;;;;8.75;4.00;;;;;26.60;100.00;101633.31;5020136;28;51170;-44
2022/09/28 06:59:43;;;;;;;;;11.25;7.00;;;;;26.66;100.00;101642.13;5019624;28;51070;-43
2022/09/28 07:02:27;;;;;;;;;13.00;8.00;;;;;26.75;100.00;101652.50;5019142;28;51150;-45
2022/09/28 07:05:12;;;;;;;;;10.25;10.25;;;;;26.76;100.00;101649.69;5017148;28;51174;-42
2022/09/28 07:07:57;;;;;;;;;10.25;7.50;;;;;26.84;100.00;101657.47;5019887;28;51110;-44
2022/09/28 07:10:46;;;;;;;;;11.00;8.00;;;;;26.95;100.00;101667.78;5019541;28;52635;-47
2022/09/28 07:13:30;;;;;;;;;15.25;12.25;;;;;27.02;100.00;101665.56;5019171;28;51535;-43
2022/09/28 07:16:15;;;;;;;;;14.25;12.75;;;;;27.12;100.00;101671.34;5017178;28;51189;-43
2022/09/28 07:18:59;;;;;;;;;12.25;10.25;;;;;27.17;100.00;101672.84;5019125;28;51114;-43
2022/09/28 07:21:44;;;;;;;;;23.00;20.25;;;;;27.21;100.00;101679.88;5019796;28;51325;-45
2022/09/28 07:24:29;;;;;;;;;17.25;13.00;;;;;27.24;100.00;101683.41;5019057;28;51186;-41
2022/09/28 07:27:14;;;;;;;;;16.75;14.00;;;;;27.20;100.00;101669.94;5019424;28;51562;-48
2022/09/28 07:29:59;;;;;;;;;17.00;11.75;;;;;27.30;100.00;101680.31;5020873;28;51584;-46
2022/09/28 07:32:47;;;;;;;;;13.00;10.00;;;;;27.37;100.00;101690.78;5023124;28;51135;-43
2022/09/28 07:35:34;;;;;;;;;18.00;17.50;;;;;27.38;100.00;101681.63;5007604;28;51340;-44
2022/09/28 07:38:19;;;;;;;;;5.75;5.50;;;;;27.41;100.00;101675.09;5019453;28;51193;-50
2022/09/28 07:41:15;;;;;;;;;13.50;9.25;;;;;27.43;100.00;101678.59;5023509;28;51422;-46
2022/09/28 07:44:06;;;;;;;;;9.00;6.00;;;;;27.46;100.00;101685.78;5022908;28;51044;-47
2022/09/28 07:46:51;;;;;;;;;9.00;7.50;;;;;27.48;100.00;101690.16;5009162;28;51052;-45
2022/09/28 07:49:35;;;;;;;;;6.00;4.00;;;;;27.48;100.00;101687.44;5008116;28;51425;-44
2022/09/28 07:52:23;;;;;;;;;4.75;4.75;;;;;27.53;100.00;101692.63;5022628;28;51098;-45
2022/09/28 07:55:08;;;;;;;;;8.00;5.00;;;;;27.59;100.00;101691.38;5022740;28;52178;-45
2022/09/28 07:58:00;;;;;;;;;10.25;5.50;;;;;27.56;100.00;101686.97;5021764;28;51080;-47
2022/09/28 08:00:47;;;;;;;;;8.00;8.00;;;;;27.61;100.00;101693.06;5019153;28;51151;-44
2022/09/28 08:03:31;;;;;;;;;8.00;6.00;;;;;27.68;100.00;101699.91;5022510;28;51499;-44
2022/09/28 08:06:17;;;;;;;;;14.00;7.00;;;;;27.76;100.00;101701.28;5004008;28;51269;-46
2022/09/28 08:09:01;;;;;;;;;9.00;7.25;;;;;27.79;100.00;101688.28;5018916;28;51188;-45
2022/09/28 08:11:46;;;;;;;;;13.50;10.00;;;;;27.87;100.00;101696.03;5020155;28;51229;-45
2022/09/28 08:14:33;;;;;;;;;10.00;8.25;;;;;27.99;100.00;101703.47;5018708;28;51307;-46
2022/09/28 08:17:18;;;;;;;;;12.25;9.50;;;;;28.08;100.00;101707.53;5019703;28;51218;-44
2022/09/28 08:23:07;;;;;;;;;7.25;6.00;;;;;28.32;100.00;101706.94;5022323;28;51482;-44
2022/09/28 08:25:52;;;;;;;;;6.50;5.00;;;;;28.45;100.00;101704.31;5020621;28;51339;-44
2022/09/28 08:28:38;;;;;;;;;7.00;7.00;;;;;28.56;100.00;101692.66;4999458;28;51142;-43
2022/09/28 08:31:22;;;;;;;;;8.50;6.00;;;;;28.70;100.00;101697.22;5016281;28;51546;-46
2022/09/28 08:34:07;;;;;;;;;13.25;12.25;;;;;28.83;100.00;101698.22;5016198;28;51369;-46
2022/09/28 08:36:51;;;;;;;;;11.75;11.75;;;;;28.95;100.00;101690.16;5012327;28;51027;-44
2022/09/28 08:39:36;;;;;;;;;9.25;8.00;;;;;29.06;100.00;101690.31;5018196;28;51287;-45
2022/09/28 08:42:39;;;;;;;;;9.00;8.00;;;;;29.20;100.00;101690.28;5019199;28;51174;-42
2022/09/28 08:45:29;;;;;;;;;12.25;9.50;;;;;29.37;100.00;101693.75;5019742;28;51556;-43
2022/09/28 08:48:44;;;;;;;;;11.75;10.00;;;;;29.50;100.00;101682.81;5018319;28;51106;-46
2022/09/28 08:51:38;;;;;;;;;10.00;8.00;;;;;29.65;100.00;101680.88;5006998;28;51562;-44
2022/09/28 08:54:48;;;;;;;;;9.50;7.00;;;;;29.76;100.00;101672.78;5006075;28;51606;-48
2022/09/28 08:57:40;;;;;;;;;9.25;7.00;;;;;29.83;100.00;101674.09;5017862;28;51427;-46
2022/09/28 09:00:37;;;;;;;;;6.25;4.75;;;;;29.83;100.00;101668.63;5004743;28;51443;-49
2022/09/28 09:03:33;;;;;;;;;6.25;5.00;;;;;29.87;100.00;101662.91;5019481;28;51150;-44
2022/09/28 09:06:40;;;;;;;;;6.75;5.25;;;;;29.90;100.00;101666.28;5002093;28;51119;-43
2022/09/28 09:09:43;;;;;;;;;4.50;4.50;;;;;29.93;100.00;101668.88;5021492;28;51142;-48
2022/09/28 09:12:37;;;;;;;;;3.25;3.25;;;;;29.95;100.00;101664.16;5004265;28;51412;-48
2022/09/28 09:15:47;;;;;;;;;5.00;5.00;;;;;29.95;100.00;101669.63;4992924;28;51458;-44
2022/09/28 09:18:36;;;;;;;;;4.25;3.50;;;;;29.99;100.00;101662.06;5020226;28;51032;-44
2022/09/28 09:21:28;;;;;;;;;5.00;5.00;;;;;29.99;100.00;101668.44;5020115;28;51152;-46
2022/09/28 09:24:34;;;;;;;;;8.00;5.75;;;;;29.96;100.00;101668.66;5003487;28;51491;-45
2022/09/28 09:27:39;;;;;;;;;5.50;5.50;;;;;29.93;100.00;101671.59;5004514;28;51588;-43
2022/09/28 09:30:25;;;;;;;;;7.25;6.00;;;;;29.90;100.00;101674.53;5002724;28;51258;-45
2022/09/28 09:33:45;;;;;;;;;7.75;5.50;;;;;29.87;100.00;101673.88;5005808;28;51230;-48
2022/09/28 09:36:52;;;;;;;;;6.50;6.50;;;;;29.84;100.00;101673.09;4997123;28;51240;-45
2022/09/28 09:39:43;;;;;;;;;7.25;6.50;;;;;29.76;100.00;101672.78;5013461;28;51262;-44
2022/09/28 09:43:08;;;;;;;;;12.50;8.75;;;;;29.72;100.00;101675.84;5014226;28;51221;-46
2022/09/28 09:46:14;;;;;;;;;20.25;13.50;;;;;29.67;100.00;101676.16;5011888;28;51228;-46
2022/09/28 09:49:03;;;;;;;;;11.00;9.00;;;;;29.59;100.00;101682.19;5017316;28;51460;-43
2022/09/28 09:52:22;;;;;;;;;14.50;10.00;;;;;29.53;100.00;101683.47;5016653;28;51333;-44
2022/09/28 09:55:09;;;;;;;;;9.75;9.75;;;;;29.47;100.00;101678.44;5016704;28;51225;-46
2022/09/28 09:58:03;;;;;;;;;11.50;8.50;;;;;29.45;100.00;101680.41;5016138;28;51236;-44
2022/09/28 10:00:50;;;;;;;;;12.00;11.00;;;;;29.40;100.00;101678.97;5019960;28;51365;-46
2022/09/28 10:03:40;;;;;;;;;12.75;11.50;;;;;29.46;100.00;101684.03;5017907;28;51078;-42
2022/09/28 10:06:31;;;;;;;;;11.00;8.50;;;;;29.51;100.00;101692.81;5004223;28;51283;-44
2022/09/28 10:09:25;;;;;;;;;8.00;5.00;;;;;29.57;100.00;101680.53;5015047;28;51130;-44
2022/09/28 10:12:14;;;;;;;;;8.75;7.00;;;;;29.59;100.00;101682.19;5004274;28;51359;-44
2022/09/28 10:15:02;;;;;;;;;6.50;4.75;;;;;29.66;100.00;101679.88;5001705;28;51141;-43
2022/09/28 10:17:47;;;;;;;;;5.75;3.00;;;;;29.72;100.00;101679.47;5001882;28;51300;-44
2022/09/28 10:20:36;;;;;;;;;4.00;3.00;;;;;29.76;100.00;101680.13;5017953;28;51166;-47
2022/09/28 10:23:32;;;;;;;;;7.50;4.00;;;;;29.72;100.00;101675.84;5017443;28;51233;-46
2022/09/28 10:26:23;;;;;;;;;3.25;2.25;;;;;29.75;100.00;101670.16;5005072;28;51084;-46
2022/09/28 10:29:16;;;;;;;;;3.25;3.25;;;;;29.72;100.00;101664.88;5013685;28;51213;-43
2022/09/28 10:32:22;;;;;;;;;2.00;2.00;;;;;29.75;100.00;101662.78;5017440;28;51150;-44
2022/09/28 10:35:26;;;;;;;;;5.50;3.50;;;;;29.72;100.00;101660.28;5001273;28;51175;-44
2022/09/28 10:38:18;;;;;;;;;7.50;4.00;;;;;29.72;100.00;101657.53;5000701;28;51142;-44
2022/09/28 10:41:10;;;;;;;;;8.75;2.50;;;;;29.75;100.00;101648.19;5017386;28;51128;-46
2022/09/28 10:44:06;;;;;;;;;7.00;2.50;;;;;29.84;100.00;101653.91;5003407;28;51400;-46
2022/09/28 10:47:00;;;;;;;;;6.25;3.75;;;;;29.83;100.00;101643.94;5003906;28;51037;-43
2022/09/28 10:49:47;;;;;;;;;8.50;5.25;;;;;29.88;100.00;101638.13;5016089;28;51142;-45
2022/09/28 10:52:45;;;;;;;;;6.50;3.50;;;;;29.98;100.00;101646.56;5002593;28;51124;-44
2022/09/28 10:55:32;;;;;;;;;7.25;6.75;;;;;30.01;100.00;101632.66;5015601;28;51244;-44
2022/09/28 10:58:26;;;;;;;;;5.75;5.75;;;;;30.08;100.00;101635.84;5000176;28;51170;-45
2022/09/28 11:01:16;;;;;;;;;3.00;3.00;;;;;30.08;100.00;101631.22;5005794;28;51075;-44
2022/09/28 11:04:03;;;;;;;;;3.75;3.00;;;;;30.07;100.00;101636.81;5011782;28;51519;-44
2022/09/28 11:06:49;;;;;;;;;8.00;4.50;;;;;30.04;100.00;101634.28;5005618;28;51168;-43
2022/09/28 11:09:40;;;;;;;;;3.25;3.25;;;;;29.95;100.00;101633.06;5016842;28;51492;-44
2022/09/28 11:12:28;;;;;;;;;8.75;5.00;;;;;29.76;100.00;101628.88;5000761;28;51440;-44
2022/09/28 11:15:23;;;;;;;;;7.25;5.25;;;;;29.51;100.00;101629.75;4999385;28;51245;-41
2022/09/28 11:18:23;;;;;;;;;4.50;4.50;;;;;29.26;100.00;101633.28;5003706;28;51144;-43
2022/09/28 11:21:12;;;;;;;;;5.00;3.75;;;;;29.13;100.00;101625.91;5018464;28;51094;-44
2022/09/28 11:24:06;;;;;;;;;6.75;5.75;;;;;29.07;100.00;101624.44;5003174;28;51291;-43
2022/09/28 11:26:55;;;;;;;;;9.50;7.00;;;;;29.03;100.00;101617.44;5017751;28;52633;-44
2022/09/28 11:29:41;;;;;;;;;11.75;8.75;;;;;29.02;100.00;101606.56;5004645;28;51664;-48
2022/09/28 11:32:30;;;;;;;;;12.00;8.50;;;;;29.11;100.00;101602.34;5003778;28;51171;-45
2022/09/28 11:35:30;;;;;;;;;11.75;6.25;;;;;29.24;100.00;101603.25;5003057;28;51452;-43
2022/09/28 11:38:50;;;;;;;;;8.75;6.25;;;;;29.41;100.00;101602.13;5014681;28;51173;-43
2022/09/28 11:41:52;;;;;;;;;6.25;4.00;;;;;29.53;100.00;101598.47;5015876;28;51075;-45
2022/09/28 11:44:38;;;;;;;;;9.50;8.50;;;;;29.65;100.00;101590.38;5004672;28;51398;-43
2022/09/28 11:47:32;;;;;;;;;7.50;4.50;;;;;29.81;100.00;101587.41;5015798;28;51508;-46
2022/09/28 11:50:35;;;;;;;;;11.25;9.00;;;;;29.87;100.00;101583.34;5005003;28;51158;-43
2022/09/28 11:53:37;;;;;;;;;13.25;9.50;;;;;29.97;100.00;101589.94;5017175;28;51161;-44
2022/09/28 11:56:35;;;;;;;;;12.00;8.00;;;;;30.05;100.00;101584.81;5017359;28;51340;-46
2022/09/28 11:59:26;;;;;;;;;10.00;8.75;;;;;30.16;100.00;101574.91;5003919;28;51234;-50
2022/09/28 12:02:24;;;;;;;;;6.75;6.75;;;;;30.27;100.00;101574.94;5017528;28;51171;-46
2022/09/28 12:05:23;;;;;;;;;5.50;5.00;;;;;30.29;100.00;101564.75;5017704;28;51442;-44
2022/09/28 12:08:33;;;;;;;;;4.00;3.00;;;;;30.34;100.00;101572.63;5019195;28;51249;-44
2022/09/28 12:11:23;;;;;;;;;8.00;5.25;;;;;30.34;100.00;101569.88;5003028;28;51230;-44
2022/09/28 12:14:19;;;;;;;;;6.50;3.00;;;;;30.36;100.00;101568.81;4999046;28;51408;-43
2022/09/28 12:17:34;;;;;;;;;3.25;3.25;;;;;30.20;100.00;101568.19;5003623;28;51185;-42
2022/09/28 12:20:31;;;;;;;;;2.00;2.00;;;;;29.80;100.00;101559.13;5008345;28;51084;-46
2022/09/28 12:23:30;;;;;;;;;5.00;3.50;;;;;29.54;100.00;101563.72;5014518;28;51338;-45
2022/09/28 12:26:40;;;;;;;;;3.50;1.00;;;;;29.35;100.00;101561.41;5004050;28;51079;-43
2022/09/28 12:29:53;;;;;;;;;6.00;4.00;;;;;29.19;100.00;101551.50;5021222;28;52252;-44
2022/09/28 12:32:45;;;;;;;;;4.00;3.00;;;;;29.13;100.00;101548.31;5016338;28;51193;-42
2022/09/28 12:36:06;;;;;;;;;4.75;2.25;;;;;29.13;100.00;101540.94;5021738;28;51152;-43
2022/09/28 12:39:03;;;;;;;;;7.00;6.25;;;;;29.21;100.00;101541.28;5006090;28;51167;-44
2022/09/28 12:41:48;;;;;;;;;5.00;5.00;;;;;29.32;100.00;101526.84;5005788;28;51449;-41
2022/09/28 12:45:07;;;;;;;;;5.00;4.00;;;;;29.45;100.00;101526.88;5019711;28;51194;-47
2022/09/28 12:48:16;;;;;;;;;9.25;5.00;;;;;29.55;100.00;101515.25;5016156;28;51270;-46
2022/09/28 12:51:06;;;;;;;;;8.00;5.25;;;;;29.67;100.00;101517.09;5018862;28;51430;-46
2022/09/28 12:53:57;;;;;;;;;4.25;3.00;;;;;29.63;100.00;101508.22;5017762;28;51174;-46
2022/09/28 12:56:50;;;;;;;;;5.00;3.00;;;;;29.55;100.00;101501.53;5018410;28;51403;-42
2022/09/28 12:59:41;;;;;;;;;5.00;4.50;;;;;29.48;100.00;101493.75;5020674;28;51063;-45
2022/09/28 13:02:35;;;;;;;;;7.75;3.50;;;;;29.50;100.00;101490.91;5003015;28;51220;-44
2022/09/28 13:05:27;;;;;;;;;4.00;4.00;;;;;29.53;100.00;101487.94;5019809;28;51535;-44
2022/09/28 13:08:20;;;;;;;;;4.50;4.50;;;;;29.53;100.00;101491.53;5020854;28;51399;-44